Pagrindinis puslapis
METAR-TAF:

METAR-TAF

Oro uostai :

Sen Deni, Reunjonas

platuma: 20-53S, ilguma: 055-31E, Aukštis: 21 m

Dabartinis oras

Ataskaita buvo paskelbta 27 minutes, ne 18:00 UTC
Vėjas 11 kt iš Rytų/Pietryčių
Temperatūra 26°C
Drėgmė 74%
Slėgis 1015 hPa
Matomumas 10 km arba daugiau
nėra debesų žemiau 1500 m ir nėra kamuolinių lietaus debesų

METAR: FMEE 171800Z AUTO 12011KT CAVOK 26/21 Q1015 NOSIG

Laikas: 22:27 (18:27 UTC)

Prognozė

Ataskaita buvo paskelbta 1 valandą ir 27 minutes, ne 17:00 UTC
Prognozė galioja nuo 17 metu 18 UTC su 18 metu 24 UTC
Vėjas 15 kt iš Rytų/Pietryčių
Matomumas 10 km arba daugiau
Mažai debesys ne aukštis 2000 ft
Išsisklaidę debesys ne aukštis 6000 ft

TAF: FMEE 171700Z 1718/1824 12015KT 9999 FEW020 SCT060

Orai ataskaitas ir orų prognozės (METAR, TAF).

turimą stotys yra geltonos ir raudonos taškus žemėlapyje.

Perkelti pele per norėdami pamatyti stoties vardą.

Tada spustelėkite, norėdami matyti oro stebėjimo ir prognozės.

Norėdami pakeisti žemėlapį: spustelėkite ant žalios mygtukų su juodo kryžiaus žemyn,; žalią mygtuką su brūkšneliu, jei norite nutolinti; arba žalių rodyklių gretimoms žemėlapius.


METAR-TAF: